Time;durP1;ratioP1;P1;durP2;ratioP2;P2;SDS_P1;SDS_P2;PMS_P1;PMS_P2;Temp;Humidity;BMP_temperature;BMP_pressure;BME280_temperature;BME280_humidity;BME280_pressure;Samples;Min_cycle;Max_cycle;Signal;HPM_P1;HPM_P2
2021/04/06 00:00:24;;;;;;;1.98;0.85;;;;;;;-0.67;77.95;95467.32;1795627;78;21124;-83
2021/04/06 00:03:02;;;;;;;3.35;1.25;;;;;;;-0.66;78.00;95473.31;1796112;78;21516;-83
2021/04/06 00:05:30;;;;;;;0.55;0.55;;;;;;;-0.64;78.11;95477.77;1794792;79;21106;-83
2021/04/06 00:08:00;;;;;;;1.22;1.05;;;;;;;-0.68;78.42;95483.95;1784213;78;21175;-83
2021/04/06 00:10:45;;;;;;;1.72;0.88;;;;;;;-0.76;78.45;95479.13;1794081;78;21134;-84
2021/04/06 00:13:14;;;;;;;0.45;0.45;;;;;;;-0.87;79.15;95476.06;1777840;78;21114;-85
2021/04/06 00:15:44;;;;;;;0.55;0.55;;;;;;;-0.93;79.12;95477.80;1783158;80;21110;-84
2021/04/06 00:18:18;;;;;;;0.50;0.50;;;;;;;-1.03;79.90;95459.91;1778558;78;21482;-85
2021/04/06 00:20:47;;;;;;;1.42;0.50;;;;;;;-1.11;79.94;95481.11;1759155;80;21106;-85
2021/04/06 00:23:17;;;;;;;1.72;0.90;;;;;;;-1.15;79.79;95472.17;1799043;78;21151;-85
2021/04/06 00:25:48;;;;;;;2.58;0.68;;;;;;;-1.20;79.84;95467.17;1784504;78;21130;-85
2021/04/06 00:28:23;;;;;;;0.45;0.45;;;;;;;-1.25;79.89;95456.69;1798184;80;21482;-85
2021/04/06 00:30:53;;;;;;;0.50;0.40;;;;;;;-1.29;79.76;95447.75;1786047;80;21129;-85
2021/04/06 00:33:37;;;;;;;1.98;0.60;;;;;;;-1.31;80.22;95438.09;1744899;80;21126;-85
2021/04/06 00:36:07;;;;;;;1.72;0.90;;;;;;;-1.34;80.25;95442.47;1770779;79;21116;-85
2021/04/06 00:38:41;;;;;;;2.02;1.02;;;;;;;-1.32;80.30;95459.91;1770146;78;21094;-85
2021/04/06 00:41:15;;;;;;;0.60;0.60;;;;;;;-1.29;80.32;95454.76;1772375;80;21143;-85
2021/04/06 00:43:44;;;;;;;3.45;0.85;;;;;;;-1.22;80.24;95459.33;1784085;79;21260;-85
2021/04/06 00:46:23;;;;;;;0.53;0.53;;;;;;;-1.23;80.56;95466.84;1782465;78;21486;-85
2021/04/06 00:48:54;;;;;;;1.70;1.10;;;;;;;-1.27;81.03;95482.61;1758770;80;21144;-85
2021/04/06 00:51:22;;;;;;;1.12;0.70;;;;;;;-1.29;80.89;95499.74;1787277;79;21466;-85
2021/04/06 00:54:03;;;;;;;1.57;0.85;;;;;;;-1.31;81.31;95492.69;1809493;78;21494;-85
2021/04/06 00:56:41;;;;;;;1.70;0.95;;;;;;;-1.33;81.75;95514.23;1795211;78;21256;-85
2021/04/06 00:59:13;;;;;;;1.15;0.80;;;;;;;-1.36;81.81;95509.50;1786363;78;21098;-84
2021/04/06 01:01:47;;;;;;;1.32;0.95;;;;;;;-1.35;81.90;95503.28;1781519;78;21109;-84
2021/04/06 01:04:24;;;;;;;2.40;1.37;;;;;;;-1.30;81.64;95489.06;1802319;78;21322;-84
2021/04/06 01:07:14;;;;;;;2.85;1.35;;;;;;;-1.24;81.67;95488.67;1841639;76;23037;-83
2021/04/06 01:09:52;;;;;;;1.20;0.80;;;;;;;-1.29;81.29;95469.84;1802294;77;21108;-83
2021/04/06 01:12:26;;;;;;;3.65;1.55;;;;;;;-1.27;80.74;95474.33;1812629;78;21121;-85
2021/04/06 01:14:56;;;;;;;1.40;1.30;;;;;;;-1.23;80.26;95468.15;1799227;78;21161;-84
2021/04/06 01:17:30;;;;;;;1.22;1.12;;;;;;;-1.25;79.96;95460.58;1795814;78;21134;-84
2021/04/06 01:20:14;;;;;;;5.60;1.40;;;;;;;-1.24;79.91;95488.67;1793846;78;21135;-84
2021/04/06 01:22:47;;;;;;;8.20;1.02;;;;;;;-1.27;79.98;95486.52;1794752;78;21125;-84
2021/04/06 01:25:21;;;;;;;1.75;1.30;;;;;;;-1.29;80.31;95482.05;1801238;78;21099;-84
2021/04/06 01:27:49;;;;;;;1.10;0.85;;;;;;;-1.30;80.48;95487.77;1794655;78;21461;-84
2021/04/06 01:30:22;;;;;;;2.17;0.98;;;;;;;-1.34;80.74;95481.97;1794578;78;21100;-84
2021/04/06 01:32:51;;;;;;;2.42;1.40;;;;;;;-1.39;80.95;95499.56;1805351;78;21103;-84
2021/04/06 01:35:19;;;;;;;1.42;1.22;;;;;;;-1.42;81.04;95477.12;1804427;78;21085;-84
2021/04/06 01:37:47;;;;;;;2.60;1.32;;;;;;;-1.45;81.30;95479.67;1797580;78;21074;-84
2021/04/06 01:40:16;;;;;;;1.82;1.10;;;;;;;-1.47;81.55;95495.22;1794615;78;21494;-84
2021/04/06 01:42:43;;;;;;;3.22;1.98;;;;;;;-1.48;81.84;95493.64;1798217;78;21486;-84
2021/04/06 01:45:16;;;;;;;2.17;1.50;;;;;;;-1.50;82.04;95506.36;1807283;78;21077;-84
2021/04/06 01:47:44;;;;;;;3.20;1.30;;;;;;;-1.49;82.24;95505.86;1794283;78;21140;-85
2021/04/06 01:50:14;;;;;;;3.10;1.87;;;;;;;-1.48;82.40;95513.14;1775363;80;21123;-84
2021/04/06 01:52:46;;;;;;;3.92;1.90;;;;;;;-1.48;82.31;95520.42;1792533;78;21484;-85
2021/04/06 01:55:17;;;;;;;2.83;1.70;;;;;;;-1.45;82.18;95519.96;1750073;81;21279;-85
2021/04/06 01:57:50;;;;;;;2.08;1.47;;;;;;;-1.40;81.88;95510.98;1733125;81;21111;-85
2021/04/06 02:00:25;;;;;;;2.10;1.90;;;;;;;-1.34;81.74;95510.05;1749356;81;21131;-85
2021/04/06 02:02:49;;;;;;;3.22;2.00;;;;;;;-1.28;81.53;95492.73;1747850;81;21496;-84
2021/04/06 02:05:17;;;;;;;2.35;1.72;;;;;;;-1.23;81.29;95492.34;1748620;81;21283;-85
2021/04/06 02:07:47;;;;;;;2.42;1.70;;;;;;;-1.18;81.04;95494.75;1737223;81;21204;-85
2021/04/06 02:10:16;;;;;;;5.03;1.90;;;;;;;-1.15;80.96;95502.08;1755643;81;21096;-85
2021/04/06 02:12:44;;;;;;;2.62;1.75;;;;;;;-1.18;80.72;95511.65;1747562;81;21148;-85
2021/04/06 02:15:14;;;;;;;4.30;2.05;;;;;;;-1.21;80.75;95504.59;1758130;81;21139;-85
2021/04/06 02:17:52;;;;;;;2.30;1.75;;;;;;;-1.25;80.77;95486.58;1756684;81;21142;-84
2021/04/06 02:20:25;;;;;;;2.95;2.02;;;;;;;-1.28;80.37;95496.13;1763302;81;21269;-84
2021/04/06 02:23:02;;;;;;;3.50;1.47;;;;;;;-1.30;80.34;95522.86;1755085;81;21201;-84
2021/04/06 02:25:31;;;;;;;3.60;2.25;;;;;;;-1.32;80.50;95502.81;1743356;81;21246;-84
2021/04/06 02:27:59;;;;;;;2.85;1.98;;;;;;;-1.32;80.11;95487.72;1750435;81;21476;-84
2021/04/06 02:30:32;;;;;;;3.30;2.40;;;;;;;-1.33;80.38;95509.03;1745606;81;21620;-84
2021/04/06 02:33:02;;;;;;;3.27;2.33;;;;;;;-1.33;80.13;95506.94;1747406;81;21155;-84
2021/04/06 02:35:29;;;;;;;3.65;2.72;;;;;;;-1.31;80.34;95518.69;1755384;81;21311;-84
2021/04/06 02:37:57;;;;;;;5.20;2.65;;;;;;;-1.31;80.12;95508.80;1753199;81;21213;-84
2021/04/06 02:40:25;;;;;;;4.80;2.52;;;;;;;-1.28;79.95;95505.73;1754090;81;21126;-84
2021/04/06 02:42:58;;;;;;;2.98;2.05;;;;;;;-1.30;79.68;95516.88;1752080;81;21159;-83
2021/04/06 02:45:30;;;;;;;3.35;2.42;;;;;;;-1.31;79.72;95515.30;1762639;81;21107;-83
2021/04/06 02:48:04;;;;;;;4.20;2.40;;;;;;;-1.34;79.66;95513.95;1752249;81;21498;-83
2021/04/06 02:50:34;;;;;;;4.53;2.60;;;;;;;-1.34;79.52;95511.87;1738322;81;21154;-84
2021/04/06 02:53:07;;;;;;;4.80;2.67;;;;;;;-1.33;79.15;95497.84;1752783;81;21135;-84
2021/04/06 02:55:37;;;;;;;4.70;2.52;;;;;;;-1.33;79.34;95511.63;1736907;81;21250;-83
2021/04/06 02:58:13;;;;;;;2.20;2.00;;;;;;;-1.31;79.29;95523.09;1746122;81;21632;-83
2021/04/06 03:00:41;;;;;;;4.58;2.67;;;;;;;-1.32;79.42;95531.41;1746101;81;21142;-84
2021/04/06 03:03:28;;;;;;;6.35;3.60;;;;;;;-1.33;79.40;95529.04;1749330;81;21101;-84
2021/04/06 03:06:09;;;;;;;6.53;3.00;;;;;;;-1.35;79.51;95553.97;1749552;81;21476;-84
2021/04/06 03:08:37;;;;;;;;;;;;;;;-1.36;79.63;95547.70;1741132;81;21244;-83
2021/04/06 03:11:09;;;;;;;4.17;2.98;;;;;;;-1.40;79.56;95551.79;1741485;81;20213;-84
2021/04/06 03:13:43;;;;;;;6.85;3.15;;;;;;;-1.42;79.50;95553.80;1739955;81;21121;-83
2021/04/06 03:16:12;;;;;;;6.85;3.77;;;;;;;-1.43;79.44;95548.32;1742611;81;21145;-84
2021/04/06 03:18:42;;;;;;;8.20;3.95;;;;;;;-1.46;79.19;95543.08;1754492;81;21291;-84
2021/04/06 03:21:12;;;;;;;7.35;3.85;;;;;;;-1.47;78.85;95549.30;1743542;82;21646;-83
2021/04/06 03:23:41;;;;;;;5.85;3.45;;;;;;;-1.48;78.71;95537.32;1742520;82;21147;-84
2021/04/06 03:26:08;;;;;;;3.15;2.62;;;;;;;-1.49;78.64;95540.94;1763124;81;21120;-83
2021/04/06 03:28:39;;;;;;;6.60;3.05;;;;;;;-1.51;78.34;95535.97;1747856;81;21150;-83
2021/04/06 03:31:19;;;;;;;5.30;2.77;;;;;;;-1.52;78.21;95554.39;1744153;81;21519;-83
2021/04/06 03:33:49;;;;;;;8.10;4.05;;;;;;;-1.52;78.38;95560.38;1724422;81;21161;-83
2021/04/06 03:36:29;;;;;;;3.40;2.50;;;;;;;-1.54;78.37;95544.23;1739859;81;21171;-83
2021/04/06 03:39:00;;;;;;;3.62;2.33;;;;;;;-1.54;78.55;95546.83;1751483;81;21664;-83
2021/04/06 03:41:30;;;;;;;5.40;2.65;;;;;;;-1.52;78.23;95534.39;1737459;81;21128;-83
2021/04/06 03:44:07;;;;;;;8.98;2.35;;;;;;;-1.52;78.09;95533.61;1744948;81;21152;-83
2021/04/06 03:46:36;;;;;;;7.15;2.85;;;;;;;-1.54;78.24;95530.45;1743110;81;21518;-83
2021/04/06 03:49:20;;;;;;;13.38;3.17;;;;;;;-1.54;78.03;95522.66;1753945;81;21163;-83
2021/04/06 03:52:08;;;;;;;3.67;2.37;;;;;;;-1.54;77.74;95516.95;1737381;81;21499;-83
2021/04/06 03:54:49;;;;;;;3.25;1.98;;;;;;;-1.52;77.62;95534.39;1737301;81;21157;-83
2021/04/06 03:57:34;;;;;;;3.37;2.55;;;;;;;-1.52;77.73;95534.91;1737415;81;21123;-84
2021/04/06 04:00:00;;;;;;;5.05;2.80;;;;;;;-1.51;77.73;95544.28;1737271;81;21115;-83
2021/04/06 04:02:27;;;;;;;5.67;3.22;;;;;;;-1.50;77.61;95554.95;1750753;81;21155;-83
2021/04/06 04:04:56;;;;;;;5.78;3.22;;;;;;;-1.50;77.53;95558.34;1740417;81;21135;-83
2021/04/06 04:07:23;;;;;;;2.45;1.95;;;;;;;-1.52;77.32;95547.39;1737360;81;21553;-83
2021/04/06 04:09:50;;;;;;;6.33;3.40;;;;;;;-1.53;77.37;95558.02;1737348;81;21193;-83
2021/04/06 04:12:17;;;;;;;4.92;2.65;;;;;;;-1.53;77.47;95559.31;1739799;81;21133;-83
2021/04/06 04:14:44;;;;;;;3.62;2.12;;;;;;;-1.51;77.54;95553.38;1737400;81;21155;-83
2021/04/06 04:17:11;;;;;;;5.15;2.72;;;;;;;-1.52;77.47;95550.50;1739515;81;21112;-83
2021/04/06 04:19:38;;;;;;;4.90;2.20;;;;;;;-1.52;77.24;95556.48;1740210;81;21137;-83
2021/04/06 04:22:05;;;;;;;2.98;1.75;;;;;;;-1.52;76.89;95562.98;1737861;81;21135;-83
2021/04/06 04:24:33;;;;;;;6.12;2.67;;;;;;;-1.51;76.68;95579.37;1737396;81;21098;-83
2021/04/06 04:27:00;;;;;;;6.60;2.65;;;;;;;-1.53;76.70;95577.00;1741505;81;21477;-83
2021/04/06 04:29:27;;;;;;;4.97;3.05;;;;;;;-1.55;76.91;95592.03;1754402;81;21489;-83
2021/04/06 04:31:54;;;;;;;5.80;3.33;;;;;;;-1.55;76.63;95580.81;1756376;81;21473;-83
2021/04/06 04:34:21;;;;;;;7.67;3.00;;;;;;;-1.54;76.54;95574.63;1745616;81;21304;-83
2021/04/06 04:36:49;;;;;;;8.08;2.67;;;;;;;-1.55;76.79;95569.12;1745660;82;21283;-83
2021/04/06 04:39:16;;;;;;;11.48;2.15;;;;;;;-1.56;76.26;95556.64;1751725;81;21119;-83
2021/04/06 04:41:43;;;;;;;3.55;2.30;;;;;;;-1.58;75.61;95559.98;1750649;81;21626;-83
2021/04/06 04:44:10;;;;;;;6.55;2.33;;;;;;;-1.60;75.50;95551.63;1738364;81;21134;-83
2021/04/06 04:46:37;;;;;;;4.33;2.67;;;;;;;-1.61;75.80;95560.95;1744248;81;21261;-83
2021/04/06 04:49:04;;;;;;;3.98;3.25;;;;;;;-1.60;76.21;95566.42;1742994;81;21518;-84
2021/04/06 04:51:31;;;;;;;7.10;2.98;;;;;;;-1.61;76.40;95563.03;1742908;81;21281;-84
2021/04/06 04:53:59;;;;;;;3.87;2.40;;;;;;;-1.60;76.61;95576.31;1755180;81;21298;-84
2021/04/06 04:56:26;;;;;;;7.05;3.20;;;;;;;-1.60;77.00;95580.72;1742908;81;21312;-84
2021/04/06 04:58:54;;;;;;;10.18;3.17;;;;;;;-1.60;76.89;95586.70;1742602;81;21297;-84
2021/04/06 05:01:21;;;;;;;4.28;2.87;;;;;;;-1.58;77.24;95578.68;1746453;81;21301;-84
2021/04/06 05:03:48;;;;;;;5.35;3.50;;;;;;;-1.57;77.46;95584.16;1742778;81;21639;-82
2021/04/06 05:06:15;;;;;;;6.72;3.30;;;;;;;-1.55;77.48;95593.81;1745290;81;21541;-82
2021/04/06 05:08:43;;;;;;;7.30;3.02;;;;;;;-1.54;77.48;95594.91;1742872;81;21598;-82
2021/04/06 05:11:11;;;;;;;3.95;2.92;;;;;;;-1.53;77.54;95585.30;1742867;81;21532;-82
2021/04/06 05:13:38;;;;;;;8.45;3.35;;;;;;;-1.52;77.17;95590.78;1749093;81;21118;-82
2021/04/06 05:16:05;;;;;;;4.42;2.60;;;;;;;-1.53;76.99;95592.59;1742871;81;21125;-82
2021/04/06 05:18:32;;;;;;;5.30;3.37;;;;;;;-1.52;76.96;95600.67;1757824;81;21169;-82
2021/04/06 05:20:59;;;;;;;5.42;3.65;;;;;;;-1.54;76.75;95602.70;1744996;81;21598;-82
2021/04/06 05:23:27;;;;;;;4.55;2.45;;;;;;;-1.54;76.84;95572.03;1742714;81;21671;-82
2021/04/06 05:25:55;;;;;;;6.22;3.83;;;;;;;-1.54;76.82;95604.52;1743890;81;21629;-82
2021/04/06 05:28:22;;;;;;;3.95;2.15;;;;;;;-1.56;76.76;95585.23;1751956;81;21532;-82
2021/04/06 05:30:49;;;;;;;5.17;3.62;;;;;;;-1.58;77.04;95608.05;1742699;81;21511;-82
2021/04/06 05:33:16;;;;;;;9.80;3.62;;;;;;;-1.58;77.21;95594.27;1742883;81;21277;-82
2021/04/06 05:35:43;;;;;;;5.60;3.85;;;;;;;-1.55;77.25;95588.61;1742763;81;21307;-82
2021/04/06 05:38:11;;;;;;;10.05;3.52;;;;;;;-1.55;77.05;95597.23;1750716;81;21180;-81
2021/04/06 05:40:38;;;;;;;11.48;3.15;;;;;;;-1.54;77.19;95611.02;1750197;81;21127;-83
2021/04/06 05:43:05;;;;;;;7.53;3.45;;;;;;;-1.51;77.17;95614.45;1744094;81;21547;-84
2021/04/06 05:45:34;;;;;;;5.75;3.42;;;;;;;-1.49;77.13;95621.52;1742704;81;21270;-84
2021/04/06 05:48:04;;;;;;;5.25;2.27;;;;;;;-1.53;77.02;95594.41;1742843;81;21528;-84
2021/04/06 05:50:31;;;;;;;;;;;;;;;-1.55;76.78;95591.21;1745481;81;21633;-84
2021/04/06 05:53:01;;;;;;;8.48;2.72;;;;;;;-1.58;76.40;95594.27;1743153;81;20220;-82
2021/04/06 05:55:28;;;;;;;6.50;4.00;;;;;;;-1.57;76.39;95571.16;1752033;81;21096;-84
2021/04/06 05:57:56;;;;;;;7.65;3.62;;;;;;;-1.60;76.53;95580.20;1744954;81;21323;-84
2021/04/06 06:00:24;;;;;;;6.70;3.15;;;;;;;-1.61;76.83;95592.92;1750584;81;21245;-84
2021/04/06 06:02:53;;;;;;;12.40;3.60;;;;;;;-1.60;76.69;95613.98;1742895;81;21308;-84
2021/04/06 06:05:20;;;;;;;4.65;3.02;;;;;;;-1.59;76.78;95605.69;1747241;81;21143;-84
2021/04/06 06:07:47;;;;;;;3.83;2.98;;;;;;;-1.57;76.54;95600.54;1735985;81;21151;-82
2021/04/06 06:10:35;;;;;;;7.65;3.12;;;;;;;-1.52;76.41;95614.96;1739953;81;21183;-81
2021/04/06 06:13:25;;;;;;;3.80;2.12;;;;;;;-1.50;76.26;95607.73;1742058;81;21179;-83
2021/04/06 06:16:20;;;;;;;5.70;3.22;;;;;;;-1.49;76.29;95611.11;1763065;81;21163;-83
2021/04/06 06:18:57;;;;;;;6.00;3.72;;;;;;;-1.48;75.99;95606.70;1762428;81;21120;-83
2021/04/06 06:21:37;;;;;;;4.95;2.47;;;;;;;-1.47;75.85;95631.17;1723980;82;21135;-83
2021/04/06 06:24:06;;;;;;;4.92;2.80;;;;;;;-1.44;75.66;95612.52;1725440;83;21487;-83
2021/04/06 06:26:34;;;;;;;7.17;3.58;;;;;;;-1.42;75.02;95628.67;1740463;81;21163;-83
2021/04/06 06:29:15;;;;;;;4.55;3.10;;;;;;;-1.40;74.79;95612.36;1729328;81;21471;-83
2021/04/06 06:31:53;;;;;;;7.72;2.20;;;;;;;-1.37;74.73;95619.70;1727888;81;21151;-83
2021/04/06 06:34:38;;;;;;;6.40;3.25;;;;;;;-1.28;74.48;95615.72;1746567;81;21483;-83
2021/04/06 06:37:28;;;;;;;5.12;2.80;;;;;;;-1.20;74.71;95606.80;1764712;80;21131;-83
2021/04/06 06:40:03;;;;;;;5.87;2.27;;;;;;;-1.17;74.64;95601.13;1741769;81;21577;-83
2021/04/06 06:42:37;;;;;;;7.58;3.25;;;;;;;-1.14;74.83;95601.96;1724579;81;21517;-83
2021/04/06 06:45:25;;;;;;;5.55;2.95;;;;;;;-1.10;74.39;95611.42;1721817;83;21116;-82
2021/04/06 06:47:57;;;;;;;9.70;4.35;;;;;;;-1.10;74.45;95603.11;1750826;81;21146;-83
2021/04/06 06:50:26;;;;;;;6.55;3.33;;;;;;;-1.06;74.51;95608.63;1747251;81;21544;-83
2021/04/06 06:52:58;;;;;;;5.20;2.95;;;;;;;-1.04;74.14;95598.28;1740950;80;21131;-83
2021/04/06 06:55:26;;;;;;;4.92;2.30;;;;;;;-1.06;73.83;95599.02;1750615;81;21237;-83
2021/04/06 06:58:05;;;;;;;7.12;3.45;;;;;;;-1.01;73.85;95608.73;1730527;82;21183;-83
2021/04/06 07:00:34;;;;;;;6.53;4.15;;;;;;;-0.99;73.91;95610.08;1718812;83;21147;-83
2021/04/06 07:03:01;;;;;;;22.40;9.83;;;;;;;-0.98;73.54;95606.98;1739315;81;21179;-83
2021/04/06 07:05:31;;;;;;;9.03;4.65;;;;;;;-1.04;73.25;95598.28;1743093;81;21120;-83
2021/04/06 07:08:05;;;;;;;13.50;6.43;;;;;;;-1.02;73.37;95603.24;1749424;81;21091;-83
2021/04/06 07:10:39;;;;;;;7.75;3.87;;;;;;;-0.94;73.38;95619.81;1746946;81;21139;-83
2021/04/06 07:13:22;;;;;;;5.12;3.08;;;;;;;-0.89;73.26;95602.98;1746284;81;21167;-83
2021/04/06 07:15:51;;;;;;;5.47;3.08;;;;;;;-0.94;72.49;95607.59;1746355;81;21124;-83
2021/04/06 07:18:22;;;;;;;6.17;2.80;;;;;;;-0.96;72.66;95599.74;1747605;81;21123;-84
2021/04/06 07:21:00;;;;;;;5.47;3.17;;;;;;;-0.96;72.68;95610.14;1752336;81;21137;-84
2021/04/06 07:23:42;;;;;;;5.95;2.47;;;;;;;-0.96;72.84;95618.74;1747985;81;21141;-83
2021/04/06 07:26:13;;;;;;;6.92;3.17;;;;;;;-0.93;73.02;95626.08;1748042;81;21134;-83
2021/04/06 07:28:42;;;;;;;9.60;4.25;;;;;;;-0.94;72.91;95630.22;1746333;81;21103;-84
2021/04/06 07:31:12;;;;;;;7.50;4.17;;;;;;;-0.98;72.39;95623.39;1746469;81;21139;-83
2021/04/06 07:33:40;;;;;;;8.05;3.55;;;;;;;-0.99;72.54;95620.48;1747809;81;21087;-84
2021/04/06 07:36:12;;;;;;;6.90;3.08;;;;;;;-0.96;72.31;95615.35;1758485;81;21087;-84
2021/04/06 07:38:46;;;;;;;6.25;3.30;;;;;;;-0.92;72.89;95623.76;1746005;81;21457;-86
2021/04/06 07:41:18;;;;;;;11.83;5.42;;;;;;;-0.91;72.45;95617.53;1747134;81;21155;-84
2021/04/06 07:43:51;;;;;;;9.10;3.70;;;;;;;-0.91;72.47;95618.05;1747192;81;21166;-86
2021/04/06 07:46:39;;;;;;;7.55;3.58;;;;;;;-0.85;72.43;95611.12;1748261;81;21085;-85
2021/04/06 07:49:11;;;;;;;11.22;4.78;;;;;;;-0.77;72.49;95618.06;1754029;81;21135;-85
2021/04/06 07:51:52;;;;;;;5.03;2.95;;;;;;;-0.80;72.11;95625.03;1752064;81;21499;-87
2021/04/06 07:54:39;;;;;;;8.73;3.30;;;;;;;-0.82;72.04;95620.58;1747784;81;21494;-84
2021/04/06 07:57:07;;;;;;;11.20;4.20;;;;;;;-0.80;71.98;95630.23;1752542;81;21131;-83
2021/04/06 07:59:43;;;;;;;6.50;3.20;;;;;;;-0.85;71.77;95632.72;1747613;81;21099;-83
2021/04/06 08:02:15;;;;;;;12.37;4.87;;;;;;;-0.81;71.81;95611.75;1748738;81;21275;-83
2021/04/06 08:04:48;;;;;;;14.25;4.47;;;;;;;-0.88;71.44;95627.19;1744074;81;21182;-83
2021/04/06 08:07:23;;;;;;;13.58;6.33;;;;;;;-0.85;72.13;95635.32;1750554;81;21128;-83
2021/04/06 08:10:06;;;;;;;11.45;4.65;;;;;;;-0.83;71.87;95633.30;1743274;81;21455;-82
2021/04/06 08:12:36;;;;;;;4.78;3.00;;;;;;;-0.83;71.63;95633.81;1742063;81;21258;-82
2021/04/06 08:15:11;;;;;;;8.30;4.25;;;;;;;-0.84;71.49;95638.23;1746291;81;21254;-83
2021/04/06 08:17:50;;;;;;;7.85;3.75;;;;;;;-0.87;71.46;95637.37;1744429;81;21622;-82
2021/04/06 08:20:39;;;;;;;6.33;3.52;;;;;;;-0.87;71.18;95636.06;1745966;81;21125;-83
2021/04/06 08:23:27;;;;;;;8.38;3.65;;;;;;;-0.84;71.71;95636.93;1744838;81;21293;-82
2021/04/06 08:25:54;;;;;;;12.00;3.30;;;;;;;-0.83;72.06;95646.31;1699484;81;21154;-83
2021/04/06 08:28:31;;;;;;;7.80;4.20;;;;;;;-0.74;71.62;95641.52;1751185;81;21625;-83
2021/04/06 08:31:23;;;;;;;9.80;3.45;;;;;;;-0.73;71.38;95641.80;1747770;81;21484;-83
2021/04/06 08:33:52;;;;;;;8.50;4.67;;;;;;;-0.74;71.12;95650.63;1722115;82;21120;-82
2021/04/06 08:36:28;;;;;;;6.70;3.10;;;;;;;-0.72;71.34;95657.70;1738912;81;21499;-82
2021/04/06 08:38:58;;;;;;;7.90;3.42;;;;;;;-0.64;71.32;95652.14;1737355;81;21136;-82
2021/04/06 08:41:32;;;;;;;6.62;3.02;;;;;;;-0.48;70.91;95635.78;1737378;81;21523;-82
2021/04/06 08:44:06;;;;;;;8.93;4.62;;;;;;;-0.42;70.58;95636.69;1737431;81;21131;-82
2021/04/06 08:46:40;;;;;;;11.10;5.28;;;;;;;-0.41;70.12;95659.09;1753683;81;21139;-82
2021/04/06 08:49:25;;;;;;;11.97;5.17;;;;;;;-0.36;70.90;95658.67;1737467;81;21100;-81
2021/04/06 08:51:57;;;;;;;9.65;4.58;;;;;;;-0.43;70.50;95655.91;1749352;81;21642;-81
2021/04/06 08:54:28;;;;;;;7.50;3.27;;;;;;;-0.39;70.20;95659.66;1745311;81;21507;-82
2021/04/06 08:57:03;;;;;;;8.70;4.12;;;;;;;-0.43;69.65;95657.20;1739455;81;21491;-83
2021/04/06 08:59:42;;;;;;;9.30;3.62;;;;;;;-0.49;70.02;95652.43;1745392;81;21124;-82
2021/04/06 09:02:13;;;;;;;10.82;5.65;;;;;;;-0.55;69.34;95653.88;1736943;81;21140;-84
2021/04/06 09:04:50;;;;;;;7.83;4.25;;;;;;;-0.53;69.83;95659.13;1739492;81;21244;-81
2021/04/06 09:07:35;;;;;;;10.45;5.62;;;;;;;-0.40;69.97;95652.35;1735766;81;21228;-82
2021/04/06 09:10:09;;;;;;;9.10;3.77;;;;;;;-0.32;70.17;95661.59;1737012;81;21143;-84
2021/04/06 09:12:40;;;;;;;12.70;4.22;;;;;;;-0.37;69.91;95644.58;1739381;81;21725;-82
2021/04/06 09:15:12;;;;;;;4.87;3.55;;;;;;;-0.48;68.59;95622.77;1740402;81;21164;-82
2021/04/06 09:17:41;;;;;;;10.25;4.87;;;;;;;-0.49;69.10;95621.70;1738676;80;21703;-82
2021/04/06 09:20:13;;;;;;;14.00;4.33;;;;;;;-0.41;68.75;95583.08;1745940;81;21568;-81
2021/04/06 09:22:45;;;;;;;6.87;3.20;;;;;;;-0.34;67.99;95590.73;1746037;81;21159;-82
2021/04/06 09:25:28;;;;;;;12.68;4.78;;;;;;;-0.11;67.95;95611.45;1742755;81;21273;-82
2021/04/06 09:28:07;;;;;;;11.80;4.83;;;;;;;-0.08;67.21;95587.53;1743100;81;21286;-82
2021/04/06 09:30:44;;;;;;;12.05;6.00;;;;;;;-0.08;67.21;95587.53;1754624;81;21182;-82
2021/04/06 09:33:15;;;;;;;6.92;3.10;;;;;;;0.07;67.31;95607.83;1752964;81;21209;-84
2021/04/06 09:35:50;;;;;;;9.05;3.90;;;;;;;0.21;66.66;95600.48;1743015;81;21158;-82
2021/04/06 09:38:22;;;;;;;8.68;5.17;;;;;;;0.20;66.52;95594.48;1753632;81;21162;-81
2021/04/06 09:40:50;;;;;;;7.55;3.25;;;;;;;0.23;66.60;95594.52;1746592;81;21096;-83
2021/04/06 09:43:21;;;;;;;13.32;7.28;;;;;;;0.30;66.25;95599.07;1742876;81;21128;-82
2021/04/06 09:45:50;;;;;;;12.60;4.90;;;;;;;0.41;66.68;95605.98;1761408;81;21108;-82
2021/04/06 09:48:20;;;;;;;9.08;4.05;;;;;;;0.64;66.53;95602.42;1762716;81;21120;-82
2021/04/06 09:51:06;;;;;;;8.05;4.03;;;;;;;0.42;65.08;95603.66;1770751;80;21478;-83
2021/04/06 09:53:37;;;;;;;6.65;3.87;;;;;;;0.41;65.61;95605.98;1772808;79;21127;-83
2021/04/06 09:56:05;;;;;;;7.92;3.70;;;;;;;0.52;65.66;95586.08;1762491;80;21100;-83
2021/04/06 09:58:34;;;;;;;6.45;3.17;;;;;;;0.60;65.04;95583.07;1772568;79;21311;-82
2021/04/06 10:01:02;;;;;;;11.48;4.67;;;;;;;0.62;64.54;95594.56;1736264;81;21141;-82
2021/04/06 10:03:29;;;;;;;12.10;4.67;;;;;;;0.68;64.69;95596.98;1747434;81;21140;-85
2021/04/06 10:06:06;;;;;;;12.28;4.47;;;;;;;0.75;64.82;95599.44;1713089;83;21195;-83
2021/04/06 10:08:34;;;;;;;7.65;3.52;;;;;;;0.87;64.91;95592.30;1753580;81;21149;-84
2021/04/06 10:11:02;;;;;;;10.20;5.65;;;;;;;0.98;64.31;95603.11;1735196;82;21204;-86
2021/04/06 10:13:31;;;;;;;8.73;4.05;;;;;;;0.94;64.15;95612.98;1720656;82;21142;-84
2021/04/06 10:16:16;;;;;;;12.53;5.33;;;;;;;0.76;63.84;95625.28;1735555;82;21566;-83
2021/04/06 10:18:47;;;;;;;11.55;5.00;;;;;;;0.75;63.91;95634.14;1738578;82;21140;-83
2021/04/06 10:21:27;;;;;;;12.30;4.47;;;;;;;0.77;63.77;95643.02;1725780;82;21228;-83
2021/04/06 10:24:06;;;;;;;13.35;5.55;;;;;;;0.90;63.79;95643.99;1737500;82;21166;-83
2021/04/06 10:26:34;;;;;;;10.37;5.57;;;;;;;1.02;64.39;95639.46;1721331;82;21151;-83
2021/04/06 10:29:09;;;;;;;8.43;2.83;;;;;;;1.09;63.79;95632.23;1723428;82;21143;-84
2021/04/06 10:31:50;;;;;;;7.05;3.80;;;;;;;1.00;63.23;95593.25;1719440;82;21174;-83
2021/04/06 10:34:18;;;;;;;9.53;5.00;;;;;;;0.76;63.52;95605.72;1712713;82;21619;-83
2021/04/06 10:36:59;;;;;;;7.20;3.70;;;;;;;0.68;64.51;95611.33;1729843;82;21177;-83
2021/04/06 10:39:42;;;;;;;12.00;5.35;;;;;;;0.50;64.38;95608.48;1727038;82;21166;-84
2021/04/06 10:42:14;;;;;;;8.90;3.92;;;;;;;0.34;64.57;95614.50;1731380;82;21223;-83
2021/04/06 10:44:45;;;;;;;11.73;4.97;;;;;;;0.31;64.40;95612.38;1737415;82;21107;-83
2021/04/06 10:47:26;;;;;;;10.25;5.03;;;;;;;0.33;65.13;95599.10;1734697;82;21241;-84
2021/04/06 10:49:59;;;;;;;13.35;4.95;;;;;;;0.38;65.47;95607.78;1736441;82;21622;-83
2021/04/06 10:52:33;;;;;;;7.87;3.45;;;;;;;0.52;66.13;95622.06;1725777;81;21156;-82
2021/04/06 10:55:04;;;;;;;6.90;2.95;;;;;;;0.57;64.90;95616.95;1729361;83;21528;-85
2021/04/06 10:57:36;;;;;;;8.15;3.85;;;;;;;0.61;65.07;95620.38;1710077;83;21519;-82
2021/04/06 11:00:25;;;;;;;11.12;4.08;;;;;;;0.61;64.28;95621.67;1738547;81;21095;-82
2021/04/06 11:03:14;;;;;;;9.00;4.17;;;;;;;0.51;63.79;95613.97;1742854;81;21200;-83
2021/04/06 11:05:44;;;;;;;9.15;5.28;;;;;;;0.61;63.97;95622.98;1709822;81;21131;-83
2021/04/06 11:08:27;;;;;;;9.68;4.70;;;;;;;0.83;65.05;95627.19;1713687;81;21155;-83
2021/04/06 11:10:57;;;;;;;9.40;4.50;;;;;;;1.17;63.59;95620.59;1733110;82;21139;-83
2021/04/06 11:13:25;;;;;;;6.30;2.75;;;;;;;1.36;62.02;95609.31;1722250;83;21157;-83
2021/04/06 11:15:52;;;;;;;9.03;5.10;;;;;;;1.48;61.68;95617.80;1738106;81;21492;-81
2021/04/06 11:18:19;;;;;;;8.53;4.33;;;;;;;1.55;61.65;95623.64;1731105;81;21131;-82
2021/04/06 11:20:46;;;;;;;14.03;4.10;;;;;;;1.54;60.63;95615.51;1737438;81;21131;-82
2021/04/06 11:23:14;;;;;;;6.37;3.45;;;;;;;1.55;61.19;95621.03;1738270;81;21141;-82
2021/04/06 11:25:43;;;;;;;12.98;4.87;;;;;;;1.49;60.37;95625.91;1740086;82;21111;-82
2021/04/06 11:28:10;;;;;;;14.15;5.65;;;;;;;1.56;61.37;95618.69;1732797;81;21552;-82
2021/04/06 11:30:37;;;;;;;10.65;4.70;;;;;;;1.76;62.23;95610.25;1733043;81;21129;-82
2021/04/06 11:33:06;;;;;;;9.60;4.37;;;;;;;1.88;60.76;95604.88;1725046;82;21542;-82
2021/04/06 11:35:34;;;;;;;8.20;5.08;;;;;;;1.78;59.65;95597.73;1739449;81;21591;-82
2021/04/06 11:38:02;;;;;;;8.00;3.95;;;;;;;1.91;60.25;95600.46;1745081;81;21128;-83
2021/04/06 11:40:29;;;;;;;7.12;4.17;;;;;;;1.98;59.85;95594.53;1733570;82;21156;-82
2021/04/06 11:42:57;;;;;;;10.70;4.15;;;;;;;2.15;60.77;95587.34;1732458;81;21134;-83
2021/04/06 11:45:24;;;;;;;5.65;3.12;;;;;;;2.10;58.95;95588.59;1727094;82;21516;-82
2021/04/06 11:47:54;;;;;;;10.28;4.55;;;;;;;2.11;58.97;95570.56;1731154;81;21138;-82
2021/04/06 11:50:23;;;;;;;12.03;3.60;;;;;;;2.24;59.01;95566.22;1741611;81;21169;-82
2021/04/06 11:52:51;;;;;;;11.68;4.83;;;;;;;2.33;58.17;95568.64;1730702;81;21131;-82
2021/04/06 11:55:19;;;;;;;9.35;4.55;;;;;;;2.40;58.88;95570.27;1735796;82;21141;-82
2021/04/06 11:57:47;;;;;;;8.75;4.50;;;;;;;2.36;57.99;95578.59;1740354;81;21124;-82